Map

Track Data

SID SEASON NUMBER BASIN SUBBASIN NAME ISO_TIME NATURE LAT LON WMO_WIND WMO_PRES WMO_AGENCY TRACK_TYPE DIST2LAND LANDFALL IFLAG USA_AGENCY USA_ATCF_ID USA_LAT USA_LON USA_RECORD USA_STATUS USA_WIND USA_PRES USA_SSHS USA_R34_NE USA_R34_SE USA_R34_SW USA_R34_NW USA_R50_NE USA_R50_SE USA_R50_SW USA_R50_NW USA_R64_NE USA_R64_SE USA_R64_SW USA_R64_NW USA_POCI USA_ROCI USA_RMW USA_EYE TOKYO_LAT TOKYO_LON TOKYO_GRADE TOKYO_WIND TOKYO_PRES TOKYO_R50_DIR TOKYO_R50_LONG TOKYO_R50_SHORT TOKYO_R30_DIR TOKYO_R30_LONG TOKYO_R30_SHORT TOKYO_LAND CMA_LAT CMA_LON CMA_CAT CMA_WIND CMA_PRES HKO_LAT HKO_LON HKO_CAT HKO_WIND HKO_PRES NEWDELHI_LAT NEWDELHI_LON NEWDELHI_GRADE NEWDELHI_WIND NEWDELHI_PRES NEWDELHI_CI NEWDELHI_DP NEWDELHI_POCI REUNION_LAT REUNION_LON REUNION_TYPE REUNION_WIND REUNION_PRES REUNION_TNUM REUNION_CI REUNION_RMW REUNION_R34_NE REUNION_R34_SE REUNION_R34_SW REUNION_R34_NW REUNION_R50_NE REUNION_R50_SE REUNION_R50_SW REUNION_R50_NW REUNION_R64_NE REUNION_R64_SE REUNION_R64_SW REUNION_R64_NW BOM_LAT BOM_LON BOM_TYPE BOM_WIND BOM_PRES BOM_TNUM BOM_CI BOM_RMW BOM_R34_NE BOM_R34_SE BOM_R34_SW BOM_R34_NW BOM_R50_NE BOM_R50_SE BOM_R50_SW BOM_R50_NW BOM_R64_NE BOM_R64_SE BOM_R64_SW BOM_R64_NW BOM_ROCI BOM_POCI BOM_EYE BOM_POS_METHOD BOM_PRES_METHOD NADI_LAT NADI_LON NADI_CAT NADI_WIND NADI_PRES WELLINGTON_LAT WELLINGTON_LON WELLINGTON_WIND WELLINGTON_PRES DS824_LAT DS824_LON DS824_STAGE DS824_WIND DS824_PRES TD9636_LAT TD9636_LON TD9636_STAGE TD9636_WIND TD9636_PRES TD9635_LAT TD9635_LON TD9635_WIND TD9635_PRES TD9635_ROCI NEUMANN_LAT NEUMANN_LON NEUMANN_CLASS NEUMANN_WIND NEUMANN_PRES MLC_LAT MLC_LON MLC_CLASS MLC_WIND MLC_PRES USA_GUST BOM_GUST BOM_GUST_PER REUNION_GUST REUNION_GUST_PER USA_SEAHGT USA_SEARAD_NE USA_SEARAD_SE USA_SEARAD_SW USA_SEARAD_NW STORM_SPEED STORM_DIR
1893232N12333 1893 33 NA NA NOT_NAMED 1893-08-20 06:00:00 TS 11.8000 -27.2000 35 hurdat_atl main 1099 1099 O_____________ hurdat_atl AL071893 11.8000 -27.2000 TS 35 0 8 283
1893232N12333 1893 33 NA NA NOT_NAMED 1893-08-20 09:00:00 TS 11.8901 -27.6100 main 1137 1109 P_____________ AL071893 11.8901 -27.6100 TS 37 0 1 291
1893232N12333 1893 33 NA NA NOT_NAMED 1893-08-20 12:00:00 TS 11.8429 -27.3143 40 hurdat_atl main 1109 1106 O____________O hurdat_atl AL071893 12.0000 -28.0000 TS 40 0 10.9000 -23.2000 TD 30 2 74
1893232N12333 1893 33 NA NA NOT_NAMED 1893-08-20 15:00:00 TS 11.9440 -27.4265 main 1116 1113 P____________P AL071893 12.1424 -28.3575 TS 42 0 11.1502 -23.7023 TD 32 3 324
1893232N12333 1893 33 NA NA NOT_NAMED 1893-08-20 18:00:00 TS 12.0545 -27.4727 45 hurdat_atl main 1120 1117 O____________O hurdat_atl AL071893 12.3000 -28.7000 TS 45 0 11.4000 -24.2000 TS 35 3 325
1893232N12333 1893 33 NA NA NOT_NAMED 1893-08-20 21:00:00 TS 12.1833 -27.5976 main 1127 1127 P____________P AL071893 12.4500 -29.0500 TS 45 0 11.6499 -24.6926 TS 40 6 301
1893232N12333 1893 33 NA NA NOT_NAMED 1893-08-21 00:00:00 TS 12.3667 -28.0000 45 hurdat_atl main 1164 1164 O____________O hurdat_atl AL071893 12.6000 -29.4000 TS 45 0 11.9000 -25.2000 TS 45 9 295
1893232N12333 1893 33 NA NA NOT_NAMED 1893-08-21 03:00:00 TS 12.5500 -28.4167 main 1203 1201 P____________P AL071893 12.7500 -29.7500 TS 47 0 12.1500 -25.7501 TS 50 9 294
1893232N12333 1893 33 NA NA NOT_NAMED 1893-08-21 06:00:00 TS 12.7333 -28.8333 50 hurdat_atl main 1241 1241 O____________O hurdat_atl AL071893 12.9000 -30.1000 TS 50 0 12.4000 -26.3000 TS 55 9 294
1893232N12333 1893 33 NA NA NOT_NAMED 1893-08-21 09:00:00 TS 12.9116 -29.2359 main 1279 1279 P____________P AL071893 13.0425 -30.4501 TS 52 0 12.6499 -26.8076 TS 55 9 295
1893232N12333 1893 33 NA NA NOT_NAMED 1893-08-21 12:00:00 TS 13.1000 -29.6333 55 hurdat_atl main 1318 1318 O____________O hurdat_atl AL071893 13.2000 -30.8000 TS 55 0 12.9000 -27.3000 TS 55 9 297
1893232N12333 1893 33 NA NA NOT_NAMED 1893-08-21 15:00:00 TS 13.3116 -30.0359 main 1358 1358 P____________P AL071893 13.3925 -31.1575 TS 57 0 13.1499 -27.7926 TS 55 9 299
1893232N12333 1893 33 NA NA NOT_NAMED 1893-08-21 18:00:00 TS 13.5333 -30.4333 60 hurdat_atl main 1398 1398 O____________O hurdat_atl AL071893 13.6000 -31.5000 TS 60 0 13.4000 -28.3000 TS 55 9 300
1893232N12333 1893 33 NA NA NOT_NAMED 1893-08-21 21:00:00 TS 13.7499 -30.8167 main 1438 1437 P____________P AL071893 13.7999 -31.8001 TS 62 0 13.6500 -28.8501 TS 55 9 300
1893232N12333 1893 33 NA NA NOT_NAMED 1893-08-22 00:00:00 TS 13.9667 -31.2000 65 hurdat_atl main 1478 1478 O____________O hurdat_atl AL071893 14.0000 -32.1000 HU 65 1 13.9000 -29.4000 TS 55 9 300
1893232N12333 1893 33 NA NA NOT_NAMED 1893-08-22 03:00:00 TS 14.1833 -31.6026 main 1519 1519 P____________P AL071893 14.2000 -32.4500 HU 67 1 14.1498 -29.9076 TS 55 9 299
1893232N12333 1893 33 NA NA NOT_NAMED 1893-08-22 06:00:00 TS 14.4000 -32.0000 70 hurdat_atl main 1561 1561 O____________O hurdat_atl AL071893 14.4000 -32.8000 HU 70 1 14.4000 -30.4000 TS 55 9 300
1893232N12333 1893 33 NA NA NOT_NAMED 1893-08-22 09:00:00 TS 14.6216 -32.3717 main 1603 1603 P____________P AL071893 14.6074 -33.1075 HU 72 1 14.6499 -30.9001 TS 57 8 301
1893232N12333 1893 33 NA NA NOT_NAMED 1893-08-22 12:00:00 TS 14.8333 -32.7333 75 hurdat_atl main 1634 1634 O____________O hurdat_atl AL071893 14.8000 -33.4000 HU 75 1 14.9000 -31.4000 TS 60 8 300
1893232N12333 1893 33 NA NA NOT_NAMED 1893-08-22 15:00:00 TS 15.0216 -33.0976 main 1677 1677 P____________P AL071893 14.9575 -33.7001 HU 75 1 15.1498 -31.8926 TS 60 8 297
1893232N12333 1893 33 NA NA NOT_NAMED 1893-08-22 18:00:00 TS 15.2000 -33.4667 75 hurdat_atl main 1720 1720 O____________O hurdat_atl AL071893 15.1000 -34.0000 HU 75 1 15.4000 -32.4000 TS 60 8 296
1893232N12333 1893 33 NA NA NOT_NAMED 1893-08-22 21:00:00 TS 15.3783 -33.8451 main 1752 1752 P____________P AL071893 15.2424 -34.2926 HU 77 1 15.6500 -32.9501 TS 60 8 296
1893232N12333 1893 33 NA NA NOT_NAMED 1893-08-23 00:00:00 TS 15.5667 -34.2333 80 hurdat_atl main 1795 1795 O____________O hurdat_atl AL071893 15.4000 -34.6000 HU 80 1 15.9000 -33.5000 TS 60 9 298
1893232N12333 1893 33 NA NA NOT_NAMED 1893-08-23 03:00:00 TS 15.7833 -34.6359 main 1838 1838 P____________P AL071893 15.6000 -34.9500 HU 80 1 16.1498 -34.0076 TS 60 9 299
1893232N12333 1893 33 NA NA NOT_NAMED 1893-08-23 06:00:00 TS 16.0000 -35.0333 80 hurdat_atl main 1882 1882 O____________O hurdat_atl AL071893 15.8000 -35.3000 HU 80 1 16.4000 -34.5000 TS 60 8 298
1893232N12333 1893 33 NA NA NOT_NAMED 1893-08-23 09:00:00 TS 16.1832 -35.4026 main 1925 1925 P____________P AL071893 15.9499 -35.6076 HU 82 1 16.6498 -34.9927 TS 60 8 297
1893232N12333 1893 33 NA NA NOT_NAMED 1893-08-23 12:00:00 TS 16.3667 -35.7667 85 hurdat_atl main 1969 1969 O____________O hurdat_atl AL071893 16.1000 -35.9000 HU 85 2 16.9000 -35.5000 TS 60 8 299
1893232N12333 1893 33 NA NA NOT_NAMED 1893-08-23 15:00:00 TS 16.5733 -36.1501 main 2013 2013 P____________P AL071893 16.2850 -36.2001 HU 85 2 17.1500 -36.0501 TS 60 9 301
1893232N12333 1893 33 NA NA NOT_NAMED 1893-08-23 18:00:00 TS 16.8000 -36.5333 85 hurdat_atl main 2046 2046 O____________O hurdat_atl AL071893 16.5000 -36.5000 HU 85 2 17.4000 -36.6000 TS 60 9 303
1893232N12333 1893 33 NA NA NOT_NAMED 1893-08-23 21:00:00 TS 17.0449 -36.8951 main 2090 2090 P____________P AL071893 16.7424 -36.7926 HU 85 2 17.6498 -37.1002 TS 60 9 305
1893232N12333 1893 33 NA NA NOT_NAMED 1893-08-24 00:00:00 TS 17.3000 -37.2667 85 hurdat_atl main 2109 2093 O____________O hurdat_atl AL071893 17.0000 -37.1000 HU 85 2 17.9000 -37.6000 TS 60 9 304
1893232N12333 1893 33 NA NA NOT_NAMED 1893-08-24 03:00:00 TS 17.5450 -37.6834 main 2093 2085 P____________P AL071893 17.2425 -37.4501 HU 85 2 18.1500 -38.1501 TS 60 9 302
1893232N12333 1893 33 NA NA NOT_NAMED 1893-08-24 06:00:00 TS 17.8000 -38.1000 85 hurdat_atl main 2086 2078 O____________O hurdat_atl AL071893 17.5000 -37.8000 HU 85 2 18.4000 -38.7000 TS 60 9 305
1893232N12333 1893 33 NA NA NOT_NAMED 1893-08-24 09:00:00 TS 18.0682 -38.4719 main 2080 2073 P____________P AL071893 17.7924 -38.1076 HU 85 2 18.6197 -39.2005 TS 62 9 309
1893232N12333 1893 33 NA NA NOT_NAMED 1893-08-24 12:00:00 TS 18.3667 -38.8333 85 hurdat_atl main 2083 2072 O____________O hurdat_atl AL071893 18.1000 -38.4000 HU 85 2 18.9000 -39.7000 HU 65 10 312
1893232N12333 1893 33 NA NA NOT_NAMED 1893-08-24 15:00:00 TS 18.7041 -39.2167 main 2080 2074 P____________P AL071893 18.4000 -38.7001 HU 85 2 19.3125 -40.2500 HU 65 10 314
1893232N12333 1893 33 NA NA NOT_NAMED 1893-08-24 18:00:00 TS 19.0667 -39.6000 85 hurdat_atl main 2088 2081 O____________O hurdat_atl AL071893 18.7000 -39.0000 HU 85 2 19.8000 -40.8000 HU 65 10 315
1893232N12333 1893 33 NA NA NOT_NAMED 1893-08-24 21:00:00 TS 19.4207 -39.9719 main 2088 2088 P____________P AL071893 18.9850 -39.3076 HU 85 2 20.2922 -41.3004 HU 65 10 317
1893232N12333 1893 33 NA NA NOT_NAMED 1893-08-25 00:00:00 TS 19.8000 -40.3333 85 hurdat_atl main 2105 2099 O____________O hurdat_atl AL071893 19.3000 -39.6000 HU 85 2 20.8000 -41.8000 HU 65 10 320
1893232N12333 1893 33 NA NA NOT_NAMED 1893-08-25 03:00:00 TS 20.2183 -40.6835 main 2115 2115 P____________P AL071893 19.6774 -39.8502 HU 85 2 21.3000 -42.3502 HU 65 11 323
1893232N12333 1893 33 NA NA NOT_NAMED 1893-08-25 06:00:00 TS 20.6667 -41.0333 85 hurdat_atl main 2140 2134 O____________O hurdat_atl AL071893 20.1000 -40.1000 HU 85 2 21.8000 -42.9000 HU 65 11 322
1893232N12333 1893 33 NA NA NOT_NAMED 1893-08-25 09:00:00 TS 21.1109 -41.4225 main 2151 2151 P____________P AL071893 20.5276 -40.4075 HU 85 2 22.2776 -43.4526 HU 65 12 324
1893232N12333 1893 33 NA NA NOT_NAMED 1893-08-25 12:00:00 TS 21.6000 -41.7667 85 hurdat_atl main 2173 2173 O____________O hurdat_atl AL071893 21.0000 -40.7000 HU 85 2 22.8000 -43.9000 HU 65 12 333
1893232N12333 1893 33 NA NA NOT_NAMED 1893-08-25 15:00:00 TS 22.1607 -41.9970 main 2218 2218 P____________P AL071893 21.5274 -40.9227 HU 85 2 23.4272 -44.1456 HU 65 12 342
1893232N12333 1893 33 NA NA NOT_NAMED 1893-08-25 18:00:00 TS 22.7667 -42.1667 85 hurdat_atl main 2264 2264 O____________O hurdat_atl AL071893 22.1000 -41.1000 HU 85 2 24.1000 -44.3000 HU 65 13 344
1893232N12333 1893 33 NA NA NOT_NAMED 1893-08-25 21:00:00 TS 23.3784 -42.3730 main 2312 2312 P____________P AL071893 22.6850 -41.2873 HU 85 2 24.7650 -44.5445 HU 65 13 346
1893232N12333 1893 33 NA NA NOT_NAMED 1893-08-26 00:00:00 TS 24.0000 -42.5000 85 hurdat_atl main 2365 2365 O____________O hurdat_atl AL071893 23.3000 -41.4000 HU 85 2 25.4000 -44.7000 HU 65 12 355
1893232N12333 1893 33 NA NA NOT_NAMED 1893-08-26 03:00:00 TS 24.6040 -42.4982 main 2424 2424 P____________P AL071893 23.9350 -41.3951 HU 85 2 25.9422 -44.7045 HU 65 12 6
1893232N12333 1893 33 NA NA NOT_NAMED 1893-08-26 06:00:00 TS 25.2333 -42.3667 85 hurdat_atl main 2487 2487 O____________O hurdat_atl AL071893 24.6000 -41.3000 HU 85 2 26.5000 -44.5000 HU 65 14 13
1893232N12333 1893 33 NA NA NOT_NAMED 1893-08-26 09:00:00 TS 25.9284 -42.1500 main 2504 2438 P____________P AL071893 25.2924 -41.1945 HU 85 2 27.2003 -44.0609 HU 65 15 19
1893232N12333 1893 33 NA NA NOT_NAMED 1893-08-26 12:00:00 TS 26.6333 -41.8333 85 hurdat_atl main 2442 2380 O____________O hurdat_atl AL071893 26.0000 -41.0000 HU 85 2 27.9000 -43.5000 HU 65 15 24
1893232N12333 1893 33 NA NA NOT_NAMED 1893-08-26 15:00:00 TS 27.2881 -41.4776 main 2380 2334 P____________P AL071893 26.6922 -40.7168 HU 85 2 28.4798 -42.9993 HU 65 15 29
1893232N12333 1893 33 NA NA NOT_NAMED 1893-08-26 18:00:00 TS 27.9333 -41.0333 85 hurdat_atl main 2338 2283 O____________O hurdat_atl AL071893 27.4000 -40.3000 HU 85 2 29.0000 -42.5000 HU 65 16 33
1893232N12333 1893 33 NA NA NOT_NAMED 1893-08-26 21:00:00 TS 28.5920 -40.5306 main 2287 2247 P____________P AL071893 28.1349 -39.7593 HU 85 2 29.5062 -42.0732 HU 65 17 37
1893232N12333 1893 33 NA NA NOT_NAMED 1893-08-27 00:00:00 TS 29.2667 -39.9000 85 hurdat_atl main 2243 2177 O____________O hurdat_atl AL071893 28.9000 -39.1000 HU 85 2 30.0000 -41.5000 HU 65 18 42
1893232N12333 1893 33 NA NA NOT_NAMED 1893-08-27 03:00:00 TS 29.9617 -39.1161 main 2167 2091 P____________P AL071893 29.6922 -38.3866 HU 85 2 30.5007 -40.5750 HU 65 20 46
1893232N12333 1893 33 NA NA NOT_NAMED 1893-08-27 06:00:00 TS 30.6667 -38.2333 85 hurdat_atl main 2082 2009 O____________O hurdat_atl AL071893 30.5000 -37.6000 HU 85 2 31.0000 -39.5000 HU 65 21 48
1893232N12333 1893 33 NA NA NOT_NAMED 1893-08-27 09:00:00 TS 31.3538 -37.3393 main 2001 1933 P____________P AL071893 31.2919 -36.7783 HU 85 2 31.4775 -38.4615 HU 65 21 48
1893232N12333 1893 33 NA NA NOT_NAMED 1893-08-27 12:00:00 TS 32.0667 -36.4333 85 hurdat_atl main 1925 1863 O____________O hurdat_atl AL071893 32.1000 -35.9000 HU 85 2 32.0000 -37.5000 HU 65 21 46
1893232N12333 1893 33 NA NA NOT_NAMED 1893-08-27 15:00:00 TS 32.8495 -35.5394 main 1854 1801 P____________P AL071893 32.9574 -34.9497 HU 85 2 32.6337 -36.7189 HU 65 22 43
1893232N12333 1893 33 NA NA NOT_NAMED 1893-08-27 18:00:00 TS 33.6333 -34.6667 85 hurdat_atl main 1801 1748 O____________O hurdat_atl AL071893 33.8000 -34.0000 HU 85 2 33.3000 -36.0000 HU 65 21 44
1893232N12333 1893 33 NA NA NOT_NAMED 1893-08-27 21:00:00 TS 34.3177 -33.8181 main 1743 1700 P____________P AL071893 34.5264 -33.1387 HU 85 2 33.9001 -35.1768 HU 65 20 45
1893232N12333 1893 33 NA NA NOT_NAMED 1893-08-28 00:00:00 TS 35.0333 -33.0000 85 hurdat_atl main 1700 1669 O____________O hurdat_atl AL071893 35.3000 -32.3000 HU 85 2 34.5000 -34.4000 HU 65 21 40
1893232N12333 1893 33 NA NA NOT_NAMED 1893-08-28 03:00:00 TS 35.8909 -32.2036 main 1674 1653 P____________P AL071893 36.2617 -31.4210 HU 82 1 35.1492 -33.7687 HU 67 22 36
1893232N12333 1893 33 NA NA NOT_NAMED 1893-08-28 06:00:00 TS 36.8000 -31.4000 80 hurdat_atl main 1659 1648 O____________O hurdat_atl AL071893 37.3000 -30.5000 HU 80 1 35.8000 -33.2000 HU 70 22 36
1893232N12333 1893 33 NA NA NOT_NAMED 1893-08-28 09:00:00 TS 37.6831 -30.5715 main 1654 1645 P____________P AL071893 38.3295 -29.5142 HU 77 1 36.3904 -32.6861 HU 70 22 38
1893232N12333 1893 33 NA NA NOT_NAMED 1893-08-28 12:00:00 TS 38.5333 -29.6667 75 hurdat_atl main 1646 1639 O____________O hurdat_atl AL071893 39.3000 -28.5000 HU 75 1 37.0000 -32.0000 HU 70 23 42
1893232N12333 1893 33 NA NA NOT_NAMED 1893-08-28 15:00:00 TS 39.3704 -28.6009 main 1641 1550 P____________P AL071893 40.2125 -27.4560 HU 72 1 37.6861 -30.8906 HU 70 23 47
1893232N12333 1893 33 NA NA NOT_NAMED 1893-08-28 18:00:00 TS 40.0667 -27.5333 70 hurdat_atl main 1539 1461 O____________O hurdat_atl AL071893 40.9000 -26.5000 HU 70 1 38.4000 -29.6000 HU 70 19 53
1893232N12333 1893 33 NA NA NOT_NAMED 1893-08-28 21:00:00 TS 40.5251 -26.6304 main 1453 1379 P____________P AL071893 41.2389 -25.7286 HU 67 1 39.0976 -28.4339 HU 67 15 59
1893232N12333 1893 33 NA NA NOT_NAMED 1893-08-29 00:00:00 TS 40.8667 -25.8000 65 hurdat_atl main 1376 1303 O____________O hurdat_atl AL071893 41.4000 -25.1000 HU 65 1 39.8000 -27.2000 HU 65 15 60
1893232N12333 1893 33 NA NA NOT_NAMED 1893-08-29 03:00:00 TS 41.2504 -24.9394 main 1293 1220 P____________P AL071893 41.6220 -24.5197 HU 62 0 40.5073 -25.7788 HU 62 15 60
1893232N12333 1893 33 NA NA NOT_NAMED 1893-08-29 06:00:00 TS 41.6000 -24.1000 60 hurdat_atl main 1220 1157 O____________O hurdat_atl AL071893 41.8000 -24.0000 TS 60 0 41.2000 -24.3000 TS 60 14 61
1893232N12333 1893 33 NA NA NOT_NAMED 1893-08-29 09:00:00 TS 41.9065 -23.3285 main 1149 1087 P____________P AL071893 41.9217 -23.5220 TS 57 0 41.8759 -22.9415 TS 52 13 65
1893232N12333 1893 33 NA NA NOT_NAMED 1893-08-29 12:00:00 MX 42.1667 -22.5000 55 hurdat_atl main 1079 1002 O____________O hurdat_atl AL071893 42.0000 -23.0000 TS 55 0 42.5000 -21.5000 EX 45 14 71
1893232N12333 1893 33 NA NA NOT_NAMED 1893-08-29 15:00:00 MX 42.3826 -21.5047 main 994 910 P____________P AL071893 42.0564 -22.3428 TS 52 0 43.0350 -19.8284 EX 37 16 76
1893232N12333 1893 33 NA NA NOT_NAMED 1893-08-29 18:00:00 MX 42.5667 -20.4000 50 hurdat_atl main 902 O____________O hurdat_atl AL071893 42.1000 -21.6000 TS 50 0 43.5000 -18.0000 EX 30 17 77

About IBTrACS Database

This database is a web-friendly format of International Best Track Archive for Climate Stewardship (IBTrACS), a global best track data archive curated by NOAA dating back to 1842.

Updated: 2021-10-27